EKKA/KRP METAR and TAF weather

Enter ICAO airport designator
Station Type Date Time Source
EKKA METAR 2020/03/29 20:50 UTC NOAA

EKKA 292050Z AUTO 30014KT 9999 SCT047/// BKN058/// 04/M01 Q1030


Station Type Date Time Source
EKKA Decoded METAR 2020/03/29 20:50 UTC NOAA

Karup, Denmark (EKKA) 56-18N 009-07E 53M
Mar 29, 2020 - 04:50 PM EDT / 2020.03.29 2050 UTC
Wind: from the WNW (300 degrees) at 16 MPH (14 KT):0
Visibility: greater than 7 mile(s):0
Sky conditions: mostly cloudy
Temperature: 39 F (4 C)
Dew Point: 30 F (-1 C)
Relative Humidity: 69%
Pressure (altimeter): 30.42 in. Hg (1030 hPa)
ob: EKKA 292050Z AUTO 30014KT 9999 SCT047/// BKN058/// 04/M01 Q1030
cycle: 21

Station Type Date Time Source
EKKA TAF 2020/03/29 21:31 UTC NOAA

TAF EKKA 292023Z 2921/3021 29008KT 9999 FEW040 PROB40 3000/3004 3000 -SHRASN SCT015TCU
BECMG 3005/3008 02010KT
TEMPO 3009/3016 03012G22KT

Example: see airport list